createdAt,value
2023-09-16T00:03:59.207Z,77.00
2023-09-16T00:09:01.357Z,76.78
2023-09-16T00:14:03.391Z,76.90
2023-09-16T00:19:06.110Z,76.97
2023-09-16T00:24:10.884Z,77.18
2023-09-16T00:29:13.203Z,77.66
2023-09-16T00:34:15.145Z,77.88
2023-09-16T00:39:17.091Z,77.96
2023-09-16T00:44:18.938Z,77.73
2023-09-16T00:49:20.907Z,78.05
2023-09-16T00:54:22.864Z,78.37
2023-09-16T00:59:27.136Z,77.93
2023-09-16T01:04:29.063Z,78.25
2023-09-16T01:09:31.230Z,78.18
2023-09-16T01:14:34.782Z,78.37
2023-09-16T01:19:59.279Z,78.81
2023-09-16T01:25:07.922Z,78.96
2023-09-16T01:30:10.913Z,78.89
2023-09-16T01:35:16.064Z,78.94
2023-09-16T01:40:23.344Z,79.15
2023-09-16T01:45:25.286Z,79.29
2023-09-16T01:50:27.104Z,79.20
2023-09-16T01:55:32.189Z,79.31
2023-09-16T02:00:34.035Z,79.27
2023-09-16T02:05:35.936Z,79.12
2023-09-16T02:10:38.086Z,79.26
2023-09-16T02:15:40.020Z,79.32
2023-09-16T02:20:42.275Z,79.33
2023-09-16T02:25:44.210Z,79.48
2023-09-16T02:30:50.094Z,79.21
2023-09-16T02:35:51.939Z,79.34
2023-09-16T02:40:53.787Z,79.58
2023-09-16T02:45:57.395Z,79.93
2023-09-16T02:50:59.363Z,79.72
2023-09-16T02:56:01.254Z,79.61
2023-09-16T03:01:12.490Z,79.90
2023-09-16T03:06:16.768Z,79.66
2023-09-16T03:11:19.135Z,80.13
2023-09-16T03:16:24.798Z,79.87
2023-09-16T03:21:29.282Z,80.08
2023-09-16T03:26:37.815Z,80.25
2023-09-16T03:31:40.174Z,80.44
2023-09-16T03:36:46.445Z,80.39
2023-09-16T03:41:48.344Z,80.29
2023-09-16T03:46:50.524Z,80.16
2023-09-16T03:51:52.868Z,80.25
2023-09-16T03:56:55.037Z,80.40
2023-09-16T04:01:57.250Z,80.74
2023-09-16T04:06:59.481Z,80.53
2023-09-16T04:12:04.065Z,80.64
2023-09-16T04:17:05.996Z,80.82
2023-09-16T04:22:08.020Z,80.62
2023-09-16T04:27:10.102Z,80.54
2023-09-16T04:32:12.828Z,80.69
2023-09-16T04:37:15.390Z,80.77
2023-09-16T04:42:17.346Z,81.14
2023-09-16T04:47:20.739Z,81.17
2023-09-16T04:52:24.782Z,81.43
2023-09-16T04:57:27.091Z,81.64
2023-09-16T05:02:33.791Z,81.57
2023-09-16T05:07:36.276Z,81.46
2023-09-16T05:12:38.432Z,81.59
2023-09-16T05:17:41.511Z,81.64
2023-09-16T05:22:48.398Z,81.55
2023-09-16T05:27:51.283Z,81.47
2023-09-16T05:32:53.369Z,81.17
2023-09-16T05:37:55.853Z,81.03
2023-09-16T05:42:58.017Z,80.74
2023-09-16T05:48:04.702Z,80.57
2023-09-16T05:53:14.145Z,80.40
2023-09-16T05:58:16.154Z,80.23
2023-09-16T06:03:18.455Z,79.90
2023-09-16T06:08:21.071Z,79.86
2023-09-16T06:13:23.931Z,79.64
2023-09-16T06:18:28.043Z,79.33
2023-09-16T06:23:30.377Z,78.98
2023-09-16T06:28:34.565Z,78.50
2023-09-16T06:33:37.147Z,77.89
2023-09-16T06:38:39.648Z,77.20
2023-09-16T06:43:41.617Z,76.64
2023-09-16T06:48:46.632Z,76.26
2023-09-16T06:53:48.566Z,75.74
2023-09-16T06:58:51.110Z,75.21
2023-09-16T07:03:53.291Z,74.67
2023-09-16T07:08:55.136Z,74.52
2023-09-16T07:13:57.038Z,74.25
2023-09-16T07:18:58.887Z,73.67
2023-09-16T07:24:02.703Z,73.41
2023-09-16T07:29:04.590Z,72.88
2023-09-16T07:34:06.436Z,72.36
2023-09-16T07:39:08.312Z,72.20
2023-09-16T07:44:10.143Z,71.84
2023-09-16T07:49:12.034Z,71.29
2023-09-16T07:54:17.046Z,70.58
2023-09-16T07:59:21.547Z,70.64
2023-09-16T08:04:23.636Z,70.19
2023-09-16T08:09:26.108Z,69.96
2023-09-16T08:14:28.008Z,69.34
2023-09-16T08:19:32.794Z,69.28
2023-09-16T08:24:38.176Z,68.96
2023-09-16T08:29:39.975Z,68.33
2023-09-16T08:34:41.833Z,68.21
2023-09-16T08:39:44.095Z,67.80
2023-09-16T08:44:51.605Z,67.03
2023-09-16T08:49:56.732Z,67.04
2023-09-16T08:54:59.470Z,66.49
2023-09-16T09:00:02.185Z,65.71
2023-09-16T09:05:07.648Z,65.46
2023-09-16T09:10:14.036Z,65.22
2023-09-16T09:15:16.803Z,64.35
2023-09-16T09:20:24.721Z,64.20
2023-09-16T09:25:28.356Z,63.70
2023-09-16T09:30:32.710Z,62.98
2023-09-16T09:35:34.586Z,63.12
2023-09-16T09:40:36.715Z,62.80
2023-09-16T09:45:41.592Z,61.90
2023-09-16T09:50:43.507Z,60.91
2023-09-16T09:55:45.549Z,61.08
2023-09-16T10:00:48.976Z,61.39
2023-09-16T10:05:52.206Z,61.18
2023-09-16T10:10:55.533Z,60.97
2023-09-16T10:16:01.695Z,60.80
2023-09-16T10:21:03.841Z,60.39
2023-09-16T10:26:05.825Z,59.22
2023-09-16T10:31:08.174Z,60.73
2023-09-16T10:36:12.016Z,60.69
2023-09-16T10:41:17.523Z,61.64
2023-09-16T10:46:22.080Z,61.34
2023-09-16T10:51:25.961Z,61.13
2023-09-16T10:56:33.658Z,61.30
2023-09-16T11:01:41.053Z,60.81
2023-09-16T11:06:50.217Z,60.50
2023-09-16T11:11:52.960Z,60.28
2023-09-16T11:16:57.735Z,59.83
2023-09-16T11:21:59.847Z,59.78
2023-09-16T11:27:02.228Z,59.25
2023-09-16T11:32:04.401Z,58.63
2023-09-16T11:37:11.369Z,59.13
2023-09-16T11:42:14.243Z,58.51
2023-09-16T11:47:17.950Z,58.24
2023-09-16T11:52:19.785Z,58.05
2023-09-16T11:57:22.054Z,57.97
2023-09-16T12:02:24.162Z,57.96
2023-09-16T12:07:26.481Z,57.72
2023-09-16T12:12:29.176Z,58.09
2023-09-16T12:17:31.189Z,57.71
2023-09-16T12:22:33.012Z,57.62
2023-09-16T12:27:35.104Z,57.58
2023-09-16T12:32:38.050Z,57.02
2023-09-16T12:37:40.502Z,56.64
2023-09-16T12:42:43.270Z,55.97
2023-09-16T12:47:45.769Z,55.66
2023-09-16T12:52:48.687Z,55.91
2023-09-16T12:57:52.858Z,55.62
2023-09-16T13:02:54.996Z,55.73
2023-09-16T13:07:59.342Z,55.46
2023-09-16T13:13:01.791Z,55.22
2023-09-16T13:18:05.541Z,55.01
2023-09-16T13:23:10.211Z,54.56
2023-09-16T13:28:15.105Z,54.18
2023-09-16T13:33:17.376Z,54.00
2023-09-16T13:38:19.335Z,53.79
2023-09-16T13:43:21.266Z,54.26
2023-09-16T13:48:24.477Z,53.93
2023-09-16T13:53:26.789Z,53.83
2023-09-16T13:58:28.937Z,53.62
2023-09-16T14:03:31.277Z,53.90
2023-09-16T14:08:33.257Z,54.33
2023-09-16T14:13:35.234Z,54.10
2023-09-16T14:18:37.282Z,54.35
2023-09-16T14:23:39.137Z,54.55
2023-09-16T14:28:41.189Z,54.81
2023-09-16T14:33:43.140Z,54.66
2023-09-16T14:38:45.076Z,55.04
2023-09-16T14:43:46.954Z,54.87
2023-09-16T14:48:49.147Z,54.50
2023-09-16T14:53:51.745Z,54.68
2023-09-16T14:58:53.592Z,55.07
2023-09-16T15:03:55.583Z,55.28
2023-09-16T15:08:57.496Z,55.28
2023-09-16T15:13:59.359Z,55.38
2023-09-16T15:19:01.332Z,55.37
2023-09-16T15:24:03.176Z,55.78
2023-09-16T15:29:05.314Z,56.38
2023-09-16T15:34:07.175Z,56.62
2023-09-16T15:39:09.126Z,56.78
2023-09-16T15:44:11.038Z,56.95
2023-09-16T15:49:13.060Z,57.52
2023-09-16T15:54:14.974Z,57.96
2023-09-16T15:59:16.966Z,58.64
2023-09-16T16:04:19.475Z,59.15
2023-09-16T16:09:22.675Z,59.71
2023-09-16T16:14:24.707Z,60.34
2023-09-16T16:19:26.687Z,61.10
2023-09-16T16:24:28.554Z,61.74
2023-09-16T16:29:30.904Z,62.34
2023-09-16T16:34:32.799Z,62.42
2023-09-16T16:39:35.358Z,62.30
2023-09-16T16:44:37.145Z,62.17
2023-09-16T16:49:39.863Z,62.21
2023-09-16T16:54:41.806Z,61.94
2023-09-16T16:59:44.193Z,61.80
2023-09-16T17:04:46.041Z,61.90
2023-09-16T17:09:48.043Z,62.14
2023-09-16T17:14:49.933Z,62.10
2023-09-16T17:19:53.937Z,62.27
2023-09-16T17:24:55.817Z,63.10
2023-09-16T17:29:57.773Z,64.06
2023-09-16T17:35:01.001Z,64.61
2023-09-16T17:40:06.812Z,65.05
2023-09-16T17:45:09.107Z,65.53
2023-09-16T17:50:11.119Z,66.07
2023-09-16T17:55:13.702Z,66.67
2023-09-16T18:00:15.743Z,67.15
2023-09-16T18:05:20.683Z,67.67
2023-09-16T18:10:22.712Z,67.95
2023-09-16T18:15:27.447Z,68.09
2023-09-16T18:20:29.708Z,67.55
2023-09-16T18:25:32.807Z,68.17
2023-09-16T18:30:34.700Z,69.42
2023-09-16T18:35:38.846Z,69.91
2023-09-16T18:40:41.223Z,70.14
2023-09-16T18:45:43.617Z,69.82
2023-09-16T18:50:45.737Z,68.54
2023-09-16T18:55:48.046Z,69.13
2023-09-16T19:00:50.342Z,69.31
2023-09-16T19:05:52.429Z,70.59
2023-09-16T19:10:54.287Z,71.25
2023-09-16T19:15:59.940Z,71.01
2023-09-16T19:21:01.891Z,71.42
2023-09-16T19:26:04.566Z,72.52
2023-09-16T19:31:06.448Z,72.69
2023-09-16T19:36:08.332Z,73.01
2023-09-16T19:41:10.191Z,73.24
2023-09-16T19:46:12.664Z,73.37
2023-09-16T19:51:14.681Z,74.19
2023-09-16T19:56:16.774Z,73.75
2023-09-16T20:01:18.668Z,73.84
2023-09-16T20:06:20.590Z,74.12
2023-09-16T20:11:22.472Z,74.49
2023-09-16T20:16:26.220Z,75.97
2023-09-16T20:21:28.787Z,76.88
2023-09-16T20:26:31.748Z,75.56
2023-09-16T20:31:34.204Z,74.98
2023-09-16T20:36:36.372Z,75.42
2023-09-16T20:41:38.283Z,76.03
2023-09-16T20:46:41.005Z,76.88
2023-09-16T20:51:42.877Z,77.34
2023-09-16T20:56:44.735Z,77.29
2023-09-16T21:01:47.723Z,77.65
2023-09-16T21:06:51.156Z,77.97
2023-09-16T21:11:58.059Z,77.35
2023-09-16T21:16:59.960Z,77.57
2023-09-16T21:22:01.812Z,77.78
2023-09-16T21:27:04.395Z,78.40
2023-09-16T21:32:06.390Z,79.02
2023-09-16T21:37:08.531Z,79.45
2023-09-16T21:42:10.649Z,80.00
2023-09-16T21:47:17.890Z,80.10
2023-09-16T21:52:19.995Z,80.37
2023-09-16T21:57:21.796Z,80.51
2023-09-16T22:02:24.094Z,79.15
2023-09-16T22:07:26.062Z,79.59
2023-09-16T22:12:27.907Z,80.01
2023-09-16T22:17:29.727Z,80.68
2023-09-16T22:22:32.630Z,80.88
2023-09-16T22:27:38.368Z,81.03
2023-09-16T22:32:40.359Z,81.06
2023-09-16T22:37:42.800Z,81.13
2023-09-16T22:42:44.625Z,81.14
2023-09-16T22:47:46.567Z,81.26
2023-09-16T22:52:48.532Z,81.43
2023-09-16T22:57:50.437Z,81.66
2023-09-16T23:02:52.585Z,81.81
2023-09-16T23:07:55.869Z,81.96
2023-09-16T23:13:03.750Z,82.11
2023-09-16T23:18:05.796Z,82.28
2023-09-16T23:23:08.917Z,82.45
2023-09-16T23:28:10.783Z,82.71
2023-09-16T23:33:13.779Z,82.97
2023-09-16T23:38:15.657Z,83.12
2023-09-16T23:43:17.518Z,82.79
2023-09-16T23:48:19.395Z,82.62
2023-09-16T23:53:21.254Z,82.52
2023-09-16T23:58:23.121Z,83.02
